createdAt,value
2023-06-17T00:00:24.310Z,31.17
2023-06-17T00:02:55.307Z,31.16
2023-06-17T00:05:26.888Z,31.15
2023-06-17T00:07:57.302Z,31.14
2023-06-17T00:10:27.657Z,31.13
2023-06-17T00:12:59.927Z,31.14
2023-06-17T00:15:34.617Z,31.13
2023-06-17T00:18:04.887Z,31.13
2023-06-17T00:20:38.026Z,31.13
2023-06-17T00:23:09.814Z,31.13
2023-06-17T00:25:40.299Z,31.11
2023-06-17T00:28:12.231Z,31.10
2023-06-17T00:30:42.788Z,31.10
2023-06-17T00:33:12.827Z,31.10
2023-06-17T00:35:42.690Z,31.10
2023-06-17T00:38:13.123Z,31.10
2023-06-17T00:40:43.022Z,31.08
2023-06-17T00:43:15.420Z,31.08
2023-06-17T00:45:45.586Z,31.07
2023-06-17T00:48:17.153Z,31.05
2023-06-17T00:50:47.760Z,31.04
2023-06-17T00:53:18.504Z,31.03
2023-06-17T00:55:48.839Z,31.02
2023-06-17T00:58:21.407Z,31.02
2023-06-17T01:00:51.642Z,31.01
2023-06-17T01:03:24.474Z,31.00
2023-06-17T01:06:00.642Z,30.99
2023-06-17T01:08:44.415Z,30.98
2023-06-17T01:11:20.415Z,30.98
2023-06-17T01:13:58.823Z,30.96
2023-06-17T01:16:30.798Z,30.94
2023-06-17T01:19:01.185Z,30.94
2023-06-17T01:21:32.205Z,30.93
2023-06-17T01:24:06.094Z,30.94
2023-06-17T01:26:38.556Z,30.91
2023-06-17T01:29:09.197Z,30.91
2023-06-17T01:31:39.654Z,30.90
2023-06-17T01:34:11.892Z,30.90
2023-06-17T01:36:44.250Z,30.89
2023-06-17T01:39:21.361Z,30.88
2023-06-17T01:41:59.686Z,30.87
2023-06-17T01:44:31.812Z,30.87
2023-06-17T01:47:02.511Z,30.85
2023-06-17T01:49:32.957Z,30.85
2023-06-17T01:52:03.134Z,30.84
2023-06-17T01:54:33.069Z,30.83
2023-06-17T01:57:05.037Z,30.83
2023-06-17T01:59:35.729Z,30.83
2023-06-17T02:02:06.451Z,30.82
2023-06-17T02:04:36.417Z,30.82
2023-06-17T02:07:07.460Z,30.81
2023-06-17T02:09:37.595Z,30.80
2023-06-17T02:12:12.606Z,30.80
2023-06-17T02:14:42.971Z,30.78
2023-06-17T02:17:12.747Z,30.78
2023-06-17T02:19:43.106Z,30.76
2023-06-17T02:22:13.768Z,30.76
2023-06-17T02:24:44.195Z,30.75
2023-06-17T02:27:16.236Z,30.74
2023-06-17T02:29:46.764Z,30.75
2023-06-17T02:32:18.348Z,30.72
2023-06-17T02:34:49.723Z,30.71
2023-06-17T02:37:20.446Z,30.71
2023-06-17T02:39:50.302Z,30.71
2023-06-17T02:42:22.772Z,30.70
2023-06-17T02:44:53.371Z,30.70
2023-06-17T02:47:23.621Z,30.70
2023-06-17T02:49:53.562Z,30.69
2023-06-17T02:52:23.860Z,30.68
2023-06-17T02:54:55.060Z,30.68
2023-06-17T02:57:27.385Z,30.68
2023-06-17T02:59:57.558Z,30.67
2023-06-17T03:02:28.058Z,30.65
2023-06-17T03:04:58.529Z,30.66
2023-06-17T03:07:28.601Z,30.65
2023-06-17T03:09:59.171Z,30.65
2023-06-17T03:12:31.959Z,30.66
2023-06-17T03:15:02.456Z,30.66
2023-06-17T03:17:32.789Z,30.67
2023-06-17T03:20:03.688Z,30.68
2023-06-17T03:22:34.803Z,30.69
2023-06-17T03:25:06.761Z,30.69
2023-06-17T03:27:38.603Z,30.71
2023-06-17T03:30:11.287Z,30.72
2023-06-17T03:32:41.884Z,30.72
2023-06-17T03:35:13.183Z,30.72
2023-06-17T03:37:43.638Z,30.73
2023-06-17T03:40:15.278Z,30.74
2023-06-17T03:42:47.439Z,30.76
2023-06-17T03:45:18.383Z,30.78
2023-06-17T03:47:48.846Z,30.80
2023-06-17T03:50:19.456Z,30.81
2023-06-17T03:52:49.714Z,30.83
2023-06-17T03:55:21.094Z,30.85
2023-06-17T03:57:52.503Z,30.88
2023-06-17T04:00:23.967Z,30.90
2023-06-17T04:02:54.469Z,30.92
2023-06-17T04:05:25.628Z,30.95
2023-06-17T04:08:00.158Z,30.95
2023-06-17T04:10:30.629Z,30.97
2023-06-17T04:13:02.873Z,30.99
2023-06-17T04:15:33.255Z,31.01
2023-06-17T04:18:06.180Z,31.04
2023-06-17T04:20:37.328Z,31.07
2023-06-17T04:23:07.777Z,31.10
2023-06-17T04:25:38.533Z,31.13
2023-06-17T04:28:14.466Z,31.16
2023-06-17T04:30:47.065Z,31.19
2023-06-17T04:33:18.648Z,31.21
2023-06-17T04:35:52.387Z,31.25
2023-06-17T04:38:24.805Z,31.29
2023-06-17T04:40:55.465Z,31.33
2023-06-17T04:43:30.183Z,31.35
2023-06-17T04:46:00.433Z,31.39
2023-06-17T04:48:32.795Z,31.42
2023-06-17T04:51:03.943Z,31.46
2023-06-17T04:53:34.102Z,31.50
2023-06-17T04:56:06.031Z,31.53
2023-06-17T04:58:38.437Z,31.58
2023-06-17T05:01:08.535Z,31.61
2023-06-17T05:03:40.103Z,31.65
2023-06-17T05:06:09.991Z,31.69
2023-06-17T05:08:40.281Z,31.74
2023-06-17T05:11:10.634Z,31.78
2023-06-17T05:13:42.599Z,31.83
2023-06-17T05:16:13.209Z,31.88
2023-06-17T05:18:43.603Z,31.92
2023-06-17T05:21:13.980Z,31.98
2023-06-17T05:23:43.789Z,32.03
2023-06-17T05:26:14.257Z,32.09
2023-06-17T05:28:46.692Z,32.13
2023-06-17T05:31:17.021Z,32.19
2023-06-17T05:33:46.978Z,32.22
2023-06-17T05:36:18.062Z,32.28
2023-06-17T05:38:48.518Z,32.33
2023-06-17T05:41:19.158Z,32.37
2023-06-17T05:43:51.007Z,32.42
2023-06-17T05:46:20.946Z,32.46
2023-06-17T05:48:51.136Z,32.50
2023-06-17T05:51:21.599Z,32.56
2023-06-17T05:53:52.078Z,32.60
2023-06-17T05:56:21.812Z,32.64
2023-06-17T05:58:54.141Z,32.71
2023-06-17T06:01:24.793Z,32.76
2023-06-17T06:03:54.959Z,32.82
2023-06-17T06:06:24.842Z,32.87
2023-06-17T06:08:55.249Z,32.96
2023-06-17T06:11:25.846Z,33.02
2023-06-17T06:13:57.676Z,33.09
2023-06-17T06:16:27.863Z,33.11
2023-06-17T06:18:58.357Z,33.14
2023-06-17T06:21:28.267Z,33.18
2023-06-17T06:23:58.922Z,33.23
2023-06-17T06:26:29.378Z,33.29
2023-06-17T06:29:01.728Z,33.33
2023-06-17T06:31:32.131Z,33.39
2023-06-17T06:34:02.171Z,33.44
2023-06-17T06:36:32.247Z,33.50
2023-06-17T06:39:02.607Z,33.55
2023-06-17T06:41:33.081Z,33.59
2023-06-17T06:44:04.333Z,33.64
2023-06-17T06:46:34.988Z,33.69
2023-06-17T06:49:05.570Z,33.75
2023-06-17T06:51:36.050Z,33.80
2023-06-17T06:54:06.509Z,33.87
2023-06-17T06:56:36.916Z,33.90
2023-06-17T06:59:09.007Z,33.94
2023-06-17T07:01:40.098Z,33.98
2023-06-17T07:04:10.034Z,34.01
2023-06-17T07:06:45.169Z,34.04
2023-06-17T07:09:15.346Z,34.06
2023-06-17T07:11:45.448Z,34.10
2023-06-17T07:14:17.641Z,34.13
2023-06-17T07:16:47.872Z,34.18
2023-06-17T07:19:18.058Z,34.22
2023-06-17T07:21:50.282Z,34.24
2023-06-17T07:24:20.653Z,34.26
2023-06-17T07:26:50.445Z,34.28
2023-06-17T07:29:22.187Z,34.30
2023-06-17T07:31:52.341Z,34.34
2023-06-17T07:34:22.756Z,34.36
2023-06-17T07:36:54.186Z,34.39
2023-06-17T07:39:24.533Z,34.41
2023-06-17T07:41:55.110Z,34.43
2023-06-17T07:44:27.248Z,34.46
2023-06-17T07:46:57.800Z,34.47
2023-06-17T07:49:29.815Z,34.51
2023-06-17T07:51:59.524Z,34.53
2023-06-17T07:54:29.897Z,34.58
2023-06-17T07:57:00.178Z,34.63
2023-06-17T07:59:32.304Z,34.71
2023-06-17T08:02:02.347Z,34.77
2023-06-17T08:04:32.914Z,34.82
2023-06-17T08:07:03.209Z,34.88
2023-06-17T08:09:33.594Z,34.91
2023-06-17T08:12:03.835Z,34.95
2023-06-17T08:14:43.105Z,34.99
2023-06-17T08:17:13.640Z,35.03
2023-06-17T08:19:44.227Z,35.08
2023-06-17T08:22:14.554Z,35.13
2023-06-17T08:24:45.267Z,35.18
2023-06-17T08:27:16.145Z,35.23
2023-06-17T08:29:48.602Z,35.29
2023-06-17T08:32:18.459Z,35.33
2023-06-17T08:34:48.979Z,35.37
2023-06-17T08:37:19.536Z,35.43
2023-06-17T08:39:49.802Z,35.48
2023-06-17T08:42:20.280Z,35.52
2023-06-17T08:44:55.467Z,35.55
2023-06-17T08:47:26.462Z,35.58
2023-06-17T08:49:59.370Z,35.60
2023-06-17T08:52:32.875Z,35.64
2023-06-17T08:55:05.094Z,35.67
2023-06-17T08:57:35.486Z,35.72
2023-06-17T09:00:12.624Z,35.75
2023-06-17T09:02:48.207Z,35.79
2023-06-17T09:05:19.179Z,35.81
2023-06-17T09:07:51.489Z,35.86
2023-06-17T09:10:23.423Z,35.89
2023-06-17T09:12:54.225Z,35.92
2023-06-17T09:15:26.664Z,35.94
2023-06-17T09:17:59.949Z,35.96
2023-06-17T09:20:30.485Z,35.99
2023-06-17T09:23:00.726Z,36.00
2023-06-17T09:25:30.922Z,36.02
2023-06-17T09:28:11.835Z,36.03
2023-06-17T09:30:54.941Z,36.03
2023-06-17T09:33:26.807Z,36.06
2023-06-17T09:36:05.604Z,36.05
2023-06-17T09:38:36.222Z,36.04
2023-06-17T09:41:07.236Z,36.06
2023-06-17T09:43:38.873Z,36.06
2023-06-17T09:46:13.311Z,36.06
2023-06-17T09:48:44.169Z,36.04
2023-06-17T09:51:15.458Z,36.04
2023-06-17T09:53:50.590Z,36.05
2023-06-17T09:56:21.961Z,36.02
2023-06-17T09:58:53.243Z,36.03
2023-06-17T10:01:30.779Z,36.04
2023-06-17T10:04:01.888Z,36.05
2023-06-17T10:06:34.576Z,36.05
2023-06-17T10:09:10.235Z,36.09
2023-06-17T10:11:46.997Z,36.10
2023-06-17T10:14:25.128Z,36.10
2023-06-17T10:16:58.333Z,36.09
2023-06-17T10:19:33.589Z,36.07
2023-06-17T10:22:08.702Z,36.06
2023-06-17T10:24:40.205Z,36.04
2023-06-17T10:27:11.562Z,36.03
2023-06-17T10:29:45.931Z,36.02
2023-06-17T10:32:27.659Z,36.00
2023-06-17T10:35:23.348Z,35.98
2023-06-17T10:37:54.785Z,35.97
2023-06-17T10:40:28.588Z,35.97
2023-06-17T10:43:21.459Z,35.96
2023-06-17T10:45:55.304Z,35.93
2023-06-17T10:48:32.330Z,35.93
2023-06-17T10:51:05.199Z,35.93
2023-06-17T10:53:38.569Z,35.91
2023-06-17T10:56:10.977Z,35.89
2023-06-17T10:58:51.808Z,35.87
2023-06-17T11:01:21.524Z,35.84
2023-06-17T11:03:53.766Z,35.83
2023-06-17T11:06:24.377Z,35.80
2023-06-17T11:08:56.605Z,35.78
2023-06-17T11:11:27.264Z,35.76
2023-06-17T11:13:57.809Z,35.74
2023-06-17T11:16:27.654Z,35.72
2023-06-17T11:19:00.935Z,35.69
2023-06-17T11:21:31.759Z,35.66
2023-06-17T11:24:03.074Z,35.62
2023-06-17T11:26:33.721Z,35.60
2023-06-17T11:29:04.791Z,35.59
2023-06-17T11:31:41.852Z,35.58
2023-06-17T11:34:17.138Z,35.55
2023-06-17T11:36:50.728Z,35.53
2023-06-17T11:39:22.250Z,35.51
2023-06-17T11:41:54.397Z,35.48
2023-06-17T11:44:24.929Z,35.43
2023-06-17T11:46:58.953Z,35.39
2023-06-17T11:49:31.930Z,35.38
2023-06-17T11:52:08.266Z,35.35
2023-06-17T11:54:47.466Z,35.33
2023-06-17T11:57:21.735Z,35.31
2023-06-17T11:59:52.445Z,35.31
2023-06-17T12:02:24.255Z,35.30
2023-06-17T12:04:56.943Z,35.30
2023-06-17T12:07:27.723Z,35.27
2023-06-17T12:09:58.913Z,35.22
2023-06-17T12:12:31.793Z,35.19
2023-06-17T12:15:14.934Z,35.15
2023-06-17T12:17:50.181Z,35.12
2023-06-17T12:20:24.058Z,35.12
2023-06-17T12:22:55.714Z,35.11
2023-06-17T12:25:26.517Z,35.08
2023-06-17T12:27:56.657Z,35.09
2023-06-17T12:30:26.814Z,35.09
2023-06-17T12:32:57.739Z,35.08
2023-06-17T12:35:29.961Z,35.04
2023-06-17T12:38:00.322Z,35.02
2023-06-17T12:40:30.456Z,34.99
2023-06-17T12:43:00.848Z,34.96
2023-06-17T12:45:31.278Z,34.94
2023-06-17T12:48:01.713Z,34.93
2023-06-17T12:50:34.438Z,34.92
2023-06-17T12:53:05.424Z,34.88
2023-06-17T12:55:35.408Z,34.85
2023-06-17T12:58:05.886Z,34.83
2023-06-17T13:00:37.075Z,34.79
2023-06-17T13:03:07.320Z,34.79
2023-06-17T13:05:39.576Z,34.76
2023-06-17T13:08:11.729Z,34.74
2023-06-17T13:10:43.012Z,34.71
2023-06-17T13:13:13.441Z,34.70
2023-06-17T13:15:44.373Z,34.67
2023-06-17T13:18:14.775Z,34.64
2023-06-17T13:20:46.458Z,34.61
2023-06-17T13:23:16.810Z,34.60
2023-06-17T13:25:47.287Z,34.58
2023-06-17T13:28:17.571Z,34.57
2023-06-17T13:30:47.985Z,34.56
2023-06-17T13:33:18.261Z,34.54
2023-06-17T13:35:49.844Z,34.54
2023-06-17T13:38:20.409Z,34.52
2023-06-17T13:40:51.129Z,34.49
2023-06-17T13:43:21.542Z,34.46
2023-06-17T13:45:51.692Z,34.43
2023-06-17T13:48:23.289Z,34.41
2023-06-17T13:50:55.369Z,34.39
2023-06-17T13:53:25.834Z,34.38
2023-06-17T13:55:56.255Z,34.35
2023-06-17T13:58:26.607Z,34.32
2023-06-17T14:00:57.753Z,34.27
2023-06-17T14:03:27.971Z,34.23
2023-06-17T14:06:12.894Z,34.19
2023-06-17T14:08:43.623Z,34.13
2023-06-17T14:11:13.484Z,34.09
2023-06-17T14:13:44.928Z,34.07
2023-06-17T14:16:16.761Z,34.05
2023-06-17T14:18:47.323Z,34.03
2023-06-17T14:21:30.813Z,33.99
2023-06-17T14:24:08.880Z,33.92
2023-06-17T14:26:41.655Z,33.88
2023-06-17T14:29:12.885Z,33.87
2023-06-17T14:31:42.755Z,33.85
2023-06-17T14:34:13.150Z,33.82
2023-06-17T14:36:45.483Z,33.83
2023-06-17T14:39:15.624Z,33.82
2023-06-17T14:41:45.912Z,33.82
2023-06-17T14:44:16.100Z,33.80
2023-06-17T14:46:46.388Z,33.79
2023-06-17T14:49:16.508Z,33.75
2023-06-17T14:51:49.627Z,33.74
2023-06-17T14:54:20.605Z,33.72
2023-06-17T14:56:50.751Z,33.67
2023-06-17T14:59:21.941Z,33.62
2023-06-17T15:01:52.127Z,33.57
2023-06-17T15:04:31.065Z,33.52
2023-06-17T15:07:02.270Z,33.45
2023-06-17T15:09:34.595Z,33.41
2023-06-17T15:12:09.436Z,33.40
2023-06-17T15:14:39.971Z,33.38
2023-06-17T15:17:11.627Z,33.38
2023-06-17T15:19:43.427Z,33.38
2023-06-17T15:22:15.737Z,33.39
2023-06-17T15:24:45.589Z,33.38
2023-06-17T15:27:19.565Z,33.37
2023-06-17T15:29:50.280Z,33.32
2023-06-17T15:32:22.848Z,33.27
2023-06-17T15:34:53.611Z,33.22
2023-06-17T15:37:25.099Z,33.18
2023-06-17T15:39:56.133Z,33.16
2023-06-17T15:42:27.204Z,33.13
2023-06-17T15:44:57.732Z,33.07
2023-06-17T15:47:28.324Z,33.04
2023-06-17T15:49:58.789Z,33.04
2023-06-17T15:52:30.842Z,33.02
2023-06-17T15:55:02.579Z,33.02
2023-06-17T15:57:32.977Z,33.00
2023-06-17T16:00:04.677Z,33.01
2023-06-17T16:02:35.103Z,32.99
2023-06-17T16:05:05.739Z,32.98
2023-06-17T16:07:38.515Z,32.99
2023-06-17T16:10:14.424Z,32.99
2023-06-17T16:12:44.471Z,32.96
2023-06-17T16:15:15.186Z,32.93
2023-06-17T16:17:45.520Z,32.92
2023-06-17T16:20:15.983Z,32.88
2023-06-17T16:22:48.319Z,32.84
2023-06-17T16:25:18.853Z,32.78
2023-06-17T16:27:48.763Z,32.72
2023-06-17T16:30:20.827Z,32.69
2023-06-17T16:32:51.333Z,32.65
2023-06-17T16:35:22.444Z,32.63
2023-06-17T16:37:54.102Z,32.63
2023-06-17T16:40:24.080Z,32.63
2023-06-17T16:42:53.935Z,32.62
2023-06-17T16:45:24.357Z,32.61
2023-06-17T16:47:54.804Z,32.61
2023-06-17T16:50:25.208Z,32.60
2023-06-17T16:52:57.234Z,32.59
2023-06-17T16:55:27.758Z,32.58
2023-06-17T16:57:58.031Z,32.59
2023-06-17T17:00:29.164Z,32.57
2023-06-17T17:03:00.472Z,32.55
2023-06-17T17:05:30.449Z,32.51
2023-06-17T17:08:02.861Z,32.47
2023-06-17T17:10:33.009Z,32.42
2023-06-17T17:13:03.290Z,32.41
2023-06-17T17:15:33.395Z,32.41
2023-06-17T17:18:05.025Z,32.40
2023-06-17T17:20:36.115Z,32.42
2023-06-17T17:23:09.919Z,32.43
2023-06-17T17:25:39.747Z,32.44
2023-06-17T17:28:10.556Z,32.44
2023-06-17T17:30:40.804Z,32.38
2023-06-17T17:33:11.478Z,32.34
2023-06-17T17:35:41.785Z,32.30
2023-06-17T17:38:14.180Z,32.29
2023-06-17T17:40:44.967Z,32.31
2023-06-17T17:43:15.411Z,32.29
2023-06-17T17:45:46.209Z,32.28
2023-06-17T17:48:16.012Z,32.29
2023-06-17T17:50:46.726Z,32.29
2023-06-17T17:53:19.299Z,32.29
2023-06-17T17:55:49.743Z,32.27
2023-06-17T17:58:20.374Z,32.25
2023-06-17T18:00:50.231Z,32.22
2023-06-17T18:03:20.376Z,32.21
2023-06-17T18:05:51.059Z,32.18
2023-06-17T18:08:23.426Z,32.16
2023-06-17T18:10:53.815Z,32.16
2023-06-17T18:13:23.763Z,32.16
2023-06-17T18:15:54.336Z,32.15
2023-06-17T18:18:24.662Z,32.11
2023-06-17T18:20:54.756Z,32.07
2023-06-17T18:23:26.781Z,32.07
2023-06-17T18:25:57.414Z,32.08
2023-06-17T18:28:28.112Z,32.08
2023-06-17T18:30:58.464Z,32.07
2023-06-17T18:33:28.191Z,32.08
2023-06-17T18:35:58.593Z,32.06
2023-06-17T18:38:30.442Z,32.03
2023-06-17T18:41:00.936Z,31.98
2023-06-17T18:43:31.228Z,31.94
2023-06-17T18:46:01.882Z,31.92
2023-06-17T18:48:33.818Z,31.92
2023-06-17T18:51:03.999Z,31.90
2023-06-17T18:53:37.814Z,31.90
2023-06-17T18:56:08.668Z,31.87
2023-06-17T18:58:38.708Z,31.88
2023-06-17T19:01:08.714Z,31.89
2023-06-17T19:03:39.205Z,31.89
2023-06-17T19:06:09.393Z,31.89
2023-06-17T19:08:41.229Z,31.91
2023-06-17T19:11:14.091Z,31.90
2023-06-17T19:13:44.151Z,31.89
2023-06-17T19:16:14.576Z,31.88
2023-06-17T19:18:44.747Z,31.86
2023-06-17T19:21:14.944Z,31.85
2023-06-17T19:23:46.758Z,31.82
2023-06-17T19:26:17.957Z,31.79
2023-06-17T19:28:48.308Z,31.79
2023-06-17T19:31:18.621Z,31.78
2023-06-17T19:33:48.994Z,31.76
2023-06-17T19:36:19.459Z,31.72
2023-06-17T19:38:51.797Z,31.71
2023-06-17T19:41:22.336Z,31.70
2023-06-17T19:43:55.179Z,31.70
2023-06-17T19:46:25.590Z,31.70
2023-06-17T19:48:56.137Z,31.69
2023-06-17T19:51:26.487Z,31.68
2023-06-17T19:53:58.848Z,31.68
2023-06-17T19:56:29.453Z,31.67
2023-06-17T19:58:59.546Z,31.65
2023-06-17T20:01:30.039Z,31.62
2023-06-17T20:04:00.544Z,31.58
2023-06-17T20:06:30.597Z,31.53
2023-06-17T20:09:02.728Z,31.52
2023-06-17T20:11:32.583Z,31.51
2023-06-17T20:14:02.954Z,31.48
2023-06-17T20:16:33.047Z,31.46
2023-06-17T20:19:04.263Z,31.46
2023-06-17T20:21:34.601Z,31.46
2023-06-17T20:24:06.909Z,31.47
2023-06-17T20:26:37.055Z,31.48
2023-06-17T20:29:07.298Z,31.50
2023-06-17T20:31:37.622Z,31.53
2023-06-17T20:34:07.880Z,31.56
2023-06-17T20:36:38.116Z,31.60
2023-06-17T20:39:10.656Z,31.62
2023-06-17T20:41:40.519Z,31.64
2023-06-17T20:44:12.760Z,31.66
2023-06-17T20:46:42.951Z,31.67
2023-06-17T20:49:13.038Z,31.65
2023-06-17T20:51:42.735Z,31.65
2023-06-17T20:54:15.047Z,31.66
2023-06-17T20:56:46.072Z,31.64
2023-06-17T20:59:17.034Z,31.62
2023-06-17T21:01:47.167Z,31.62
2023-06-17T21:04:17.067Z,31.61
2023-06-17T21:06:47.630Z,31.62
2023-06-17T21:09:19.931Z,31.60
2023-06-17T21:11:49.712Z,31.59
2023-06-17T21:14:20.138Z,31.58
2023-06-17T21:16:50.420Z,31.55
2023-06-17T21:19:20.729Z,31.54
2023-06-17T21:21:50.866Z,31.54
2023-06-17T21:24:22.900Z,31.56
2023-06-17T21:26:52.963Z,31.54
2023-06-17T21:29:23.129Z,31.52
2023-06-17T21:31:53.287Z,31.51
2023-06-17T21:34:23.600Z,31.47
2023-06-17T21:36:53.884Z,31.45
2023-06-17T21:39:27.181Z,31.44
2023-06-17T21:41:57.960Z,31.40
2023-06-17T21:44:28.416Z,31.35
2023-06-17T21:46:58.634Z,31.34
2023-06-17T21:49:28.393Z,31.32
2023-06-17T21:51:59.078Z,31.31
2023-06-17T21:54:31.754Z,31.30
2023-06-17T21:57:01.905Z,31.30
2023-06-17T21:59:31.679Z,31.30
2023-06-17T22:02:03.055Z,31.32
2023-06-17T22:04:33.278Z,31.31
2023-06-17T22:07:03.631Z,31.32
2023-06-17T22:09:35.913Z,31.34
2023-06-17T22:12:07.204Z,31.36
2023-06-17T22:14:36.952Z,31.38
2023-06-17T22:17:08.268Z,31.40
2023-06-17T22:19:38.336Z,31.42
2023-06-17T22:22:09.033Z,31.42
2023-06-17T22:24:41.447Z,31.41
2023-06-17T22:27:13.853Z,31.42
2023-06-17T22:29:43.846Z,31.42
2023-06-17T22:32:13.712Z,31.43
2023-06-17T22:34:43.882Z,31.41
2023-06-17T22:37:14.160Z,31.39
2023-06-17T22:39:46.423Z,31.40
2023-06-17T22:42:16.851Z,31.41
2023-06-17T22:44:47.393Z,31.40
2023-06-17T22:47:17.306Z,31.38
2023-06-17T22:49:47.675Z,31.39
2023-06-17T22:52:18.165Z,31.40
2023-06-17T22:54:50.469Z,31.41
2023-06-17T22:57:20.390Z,31.41
2023-06-17T22:59:50.641Z,31.39
2023-06-17T23:02:20.992Z,31.39
2023-06-17T23:04:51.599Z,31.36
2023-06-17T23:07:21.429Z,31.32
2023-06-17T23:09:54.017Z,31.30
2023-06-17T23:12:24.316Z,31.26
2023-06-17T23:14:54.792Z,31.23
2023-06-17T23:17:25.651Z,31.22
2023-06-17T23:19:56.095Z,31.20
2023-06-17T23:22:28.392Z,31.18
2023-06-17T23:25:06.971Z,31.17
2023-06-17T23:27:38.257Z,31.16
2023-06-17T23:30:10.546Z,31.14
2023-06-17T23:32:41.436Z,31.10
2023-06-17T23:35:12.402Z,31.06
2023-06-17T23:37:43.041Z,31.05
2023-06-17T23:40:15.871Z,31.03
2023-06-17T23:42:46.236Z,31.03
2023-06-17T23:45:16.718Z,31.03
2023-06-17T23:47:47.151Z,31.03
2023-06-17T23:50:17.584Z,31.03
2023-06-17T23:52:47.821Z,31.03
2023-06-17T23:55:19.887Z,31.03
2023-06-17T23:57:50.324Z,31.04
